createdAt,value
2019-02-28T00:02:28.938Z,14.53
2019-02-28T00:04:59.879Z,12.30
2019-02-28T00:07:30.649Z,12.53
2019-02-28T00:10:01.016Z,14.10
2019-02-28T00:12:31.380Z,22.63
2019-02-28T00:15:01.748Z,20.90
2019-02-28T00:17:32.154Z,12.00
2019-02-28T00:20:02.618Z,9.03
2019-02-28T00:22:33.001Z,9.53
2019-02-28T00:25:04.383Z,9.33
2019-02-28T00:27:35.526Z,15.87
2019-02-28T00:30:06.914Z,16.83
2019-02-28T00:32:37.449Z,15.77
2019-02-28T00:35:12.988Z,7.33
2019-02-28T00:37:40.407Z,9.00
2019-02-28T00:40:10.814Z,4.57
2019-02-28T00:42:41.312Z,6.43
2019-02-28T00:45:12.365Z,13.43
2019-02-28T00:47:42.905Z,17.33
2019-02-28T00:53:11.651Z,14.87
2019-02-28T00:55:42.369Z,8.17
2019-02-28T00:58:12.780Z,14.60
2019-02-28T01:00:43.334Z,12.13
2019-02-28T01:03:13.761Z,11.90
2019-02-28T01:05:44.019Z,25.90
2019-02-28T01:08:14.363Z,7.03
2019-02-28T01:10:44.887Z,11.33
2019-02-28T01:13:15.353Z,11.50
2019-02-28T01:15:45.945Z,19.87
2019-02-28T01:18:16.519Z,32.40
2019-02-28T01:20:49.994Z,28.13
2019-02-28T01:23:19.293Z,17.23
2019-02-28T01:25:50.148Z,15.50
2019-02-28T01:28:20.287Z,16.87
2019-02-28T01:30:50.650Z,10.07
2019-02-28T01:33:24.611Z,15.27
2019-02-28T01:35:53.151Z,16.80
2019-02-28T01:38:24.115Z,13.90
2019-02-28T01:40:55.413Z,20.03
2019-02-28T01:43:28.969Z,13.40
2019-02-28T01:45:57.823Z,13.20
2019-02-28T01:48:28.132Z,18.07
2019-02-28T01:51:00.826Z,16.17
2019-02-28T01:53:31.054Z,8.63
2019-02-28T01:56:02.563Z,8.80
2019-02-28T01:58:33.617Z,30.80
2019-02-28T02:01:04.379Z,12.73
2019-02-28T02:03:34.677Z,23.13
2019-02-28T02:06:05.254Z,7.10
2019-02-28T02:08:37.816Z,11.30
2019-02-28T02:11:08.050Z,10.30
2019-02-28T02:13:38.647Z,11.03
2019-02-28T02:16:09.062Z,12.00
2019-02-28T02:18:40.309Z,10.63
2019-02-28T02:21:11.876Z,10.70
2019-02-28T02:23:42.594Z,12.60
2019-02-28T02:26:13.240Z,24.40
2019-02-28T02:28:43.680Z,18.90
2019-02-28T02:31:14.017Z,48.13
2019-02-28T02:33:51.115Z,28.47
2019-02-28T02:36:17.682Z,19.70
2019-02-28T02:38:48.034Z,21.73
2019-02-28T02:41:18.484Z,9.47
2019-02-28T02:43:48.798Z,10.80
2019-02-28T02:46:21.261Z,13.00
2019-02-28T02:48:51.882Z,14.70
2019-02-28T02:51:22.499Z,11.93
2019-02-28T02:53:52.995Z,9.67
2019-02-28T02:56:23.520Z,14.30
2019-02-28T02:58:53.840Z,25.13
2019-02-28T03:01:24.540Z,10.30
2019-02-28T03:03:55.111Z,14.47
2019-02-28T03:06:25.488Z,8.90
2019-02-28T03:08:55.853Z,13.50
2019-02-28T03:11:26.252Z,20.23
2019-02-28T03:13:56.759Z,9.03
2019-02-28T03:16:27.143Z,17.77
2019-02-28T03:18:58.421Z,16.73
2019-02-28T03:21:28.890Z,26.63
2019-02-28T03:23:59.387Z,20.97
2019-02-28T03:26:29.705Z,27.60
2019-02-28T03:29:00.043Z,17.87
2019-02-28T03:31:30.479Z,17.57
2019-02-28T03:34:10.364Z,20.43
2019-02-28T03:36:33.206Z,12.03
2019-02-28T03:39:04.685Z,21.43
2019-02-28T03:41:35.244Z,19.53
2019-02-28T03:44:05.666Z,12.80
2019-02-28T03:46:36.285Z,15.50
2019-02-28T03:49:10.907Z,29.03
2019-02-28T03:51:38.513Z,20.40
2019-02-28T03:54:09.023Z,16.87
2019-02-28T03:56:39.912Z,15.37
2019-02-28T03:59:18.224Z,17.30
2019-02-28T04:01:45.658Z,14.47
2019-02-28T04:04:15.024Z,9.30
2019-02-28T04:06:45.783Z,11.83
2019-02-28T04:09:16.086Z,15.70
2019-02-28T04:11:46.575Z,14.37
2019-02-28T04:14:17.158Z,20.47
2019-02-28T04:16:52.531Z,10.37
2019-02-28T04:19:22.662Z,9.00
2019-02-28T04:21:51.314Z,13.50
2019-02-28T04:24:21.353Z,6.87
2019-02-28T04:26:51.555Z,8.87
2019-02-28T04:29:21.648Z,8.43
2019-02-28T04:31:52.497Z,11.93
2019-02-28T04:34:22.909Z,21.87
2019-02-28T04:36:53.090Z,11.60
2019-02-28T04:39:23.637Z,10.73
2019-02-28T04:41:53.781Z,14.53
2019-02-28T04:44:23.810Z,20.17
2019-02-28T04:46:53.712Z,25.13
2019-02-28T04:49:24.047Z,9.00
2019-02-28T04:51:54.590Z,22.43
2019-02-28T04:54:27.892Z,19.70
2019-02-28T04:56:57.026Z,21.73
2019-02-28T04:59:27.473Z,22.07
2019-02-28T05:01:58.030Z,9.00
2019-02-28T05:04:28.307Z,12.70
2019-02-28T05:06:58.644Z,9.50
2019-02-28T05:09:29.068Z,14.47
2019-02-28T05:12:02.386Z,26.80
2019-02-28T05:14:31.861Z,32.80
2019-02-28T05:17:02.200Z,35.50
2019-02-28T05:19:35.867Z,41.40
2019-02-28T05:22:04.632Z,40.83
2019-02-28T05:24:35.022Z,45.63
2019-02-28T05:27:05.422Z,42.93
2019-02-28T05:29:35.783Z,229.33
2019-02-28T05:32:06.087Z,261.37
2019-02-28T05:34:36.505Z,141.43
2019-02-28T05:37:12.258Z,93.17
2019-02-28T05:39:38.511Z,136.10
2019-02-28T05:42:08.958Z,77.37
2019-02-28T05:44:40.427Z,46.60
2019-02-28T05:47:11.879Z,48.37
2019-02-28T05:49:42.460Z,31.57
2019-02-28T05:52:12.779Z,46.50
2019-02-28T05:54:43.184Z,51.63
2019-02-28T05:57:13.864Z,104.10
2019-02-28T05:59:44.255Z,109.23
2019-02-28T06:02:14.805Z,85.97
2019-02-28T06:04:45.215Z,96.23
2019-02-28T06:07:15.553Z,110.13
2019-02-28T06:10:06.046Z,92.23
2019-02-28T06:12:36.549Z,92.97
2019-02-28T06:15:08.313Z,91.13
2019-02-28T06:17:38.973Z,105.43
2019-02-28T06:20:09.994Z,92.33
2019-02-28T06:22:40.308Z,75.73
2019-02-28T06:25:30.938Z,82.07
2019-02-28T06:28:01.384Z,78.63
2019-02-28T06:30:31.695Z,73.73
2019-02-28T06:33:01.967Z,68.07
2019-02-28T06:35:32.395Z,71.43
2019-02-28T06:38:03.142Z,61.00
2019-02-28T06:40:33.800Z,71.77
2019-02-28T06:43:04.106Z,64.17
2019-02-28T06:45:37.560Z,45.23
2019-02-28T06:48:06.925Z,40.53
2019-02-28T06:50:37.542Z,42.10
2019-02-28T06:53:07.852Z,56.83
2019-02-28T06:55:47.924Z,49.33
2019-02-28T06:58:18.938Z,54.90
2019-02-28T07:00:50.523Z,49.70
2019-02-28T07:03:21.347Z,51.37
2019-02-28T07:05:52.147Z,31.77
2019-02-28T07:08:24.944Z,24.37
2019-02-28T07:10:55.088Z,20.13
2019-02-28T07:13:25.704Z,14.10
2019-02-28T07:15:59.078Z,16.03
2019-02-28T07:18:28.443Z,13.60
2019-02-28T07:20:58.492Z,19.87
2019-02-28T07:23:30.015Z,25.37
2019-02-28T07:26:00.923Z,17.03
2019-02-28T07:28:36.249Z,25.67
2019-02-28T07:31:03.123Z,31.70
2019-02-28T07:33:33.738Z,24.83
2019-02-28T07:36:05.625Z,27.50
2019-02-28T07:38:36.112Z,17.07
2019-02-28T07:41:06.231Z,20.33
2019-02-28T07:43:36.306Z,16.03
2019-02-28T07:46:07.694Z,19.03
2019-02-28T07:48:38.659Z,17.80
2019-02-28T07:51:09.095Z,54.80
2019-02-28T07:53:40.985Z,19.13
2019-02-28T07:56:11.896Z,18.53
2019-02-28T07:58:42.290Z,18.03
2019-02-28T08:01:12.707Z,20.73
2019-02-28T08:03:43.703Z,38.87
2019-02-28T08:06:15.525Z,37.10
2019-02-28T08:08:45.909Z,28.47
2019-02-28T08:11:16.365Z,41.63
2019-02-28T08:13:46.777Z,27.80
2019-02-28T08:16:17.237Z,23.50
2019-02-28T08:18:51.141Z,26.60
2019-02-28T08:21:20.366Z,27.40
2019-02-28T08:23:50.773Z,23.47
2019-02-28T08:26:21.261Z,23.67
2019-02-28T08:28:51.801Z,23.63
2019-02-28T08:31:22.344Z,24.03
2019-02-28T08:33:52.671Z,21.57
2019-02-28T08:36:23.034Z,19.47
2019-02-28T08:38:53.489Z,19.80
2019-02-28T08:41:25.782Z,17.90
2019-02-28T08:43:56.378Z,12.90
2019-02-28T08:46:26.747Z,15.73
2019-02-28T08:48:57.152Z,14.30
2019-02-28T08:51:27.782Z,15.00
2019-02-28T08:53:59.749Z,14.37
2019-02-28T08:56:32.199Z,14.17
2019-02-28T08:59:11.377Z,11.63
2019-02-28T09:01:40.038Z,10.03
2019-02-28T09:04:07.199Z,7.97
2019-02-28T09:06:37.839Z,31.97
2019-02-28T09:09:11.906Z,14.83
2019-02-28T09:11:42.247Z,12.70
2019-02-28T09:14:14.737Z,8.10
2019-02-28T09:16:44.773Z,10.60
2019-02-28T09:19:15.178Z,52.23
2019-02-28T09:21:45.625Z,18.07
2019-02-28T09:24:16.240Z,14.40
2019-02-28T09:26:46.626Z,11.13
2019-02-28T09:29:18.348Z,13.83
2019-02-28T09:31:49.729Z,14.00
2019-02-28T09:34:20.312Z,7.27
2019-02-28T09:36:55.212Z,5.60
2019-02-28T09:39:22.724Z,6.77
2019-02-28T09:41:53.110Z,8.63
2019-02-28T09:44:23.408Z,7.77
2019-02-28T09:46:53.914Z,7.50
2019-02-28T09:49:24.489Z,6.23
2019-02-28T09:51:54.804Z,8.43
2019-02-28T09:54:25.551Z,7.20
2019-02-28T09:56:55.983Z,8.30
2019-02-28T09:59:26.253Z,8.13
2019-02-28T10:02:01.351Z,6.63
2019-02-28T10:04:30.534Z,5.97
2019-02-28T10:07:01.139Z,6.77
2019-02-28T10:09:31.600Z,6.23
2019-02-28T10:12:04.631Z,10.20
2019-02-28T10:14:34.660Z,7.37
2019-02-28T10:17:05.225Z,6.93
2019-02-28T10:19:55.619Z,6.30
2019-02-28T10:22:26.222Z,12.63
2019-02-28T10:24:56.690Z,17.37
2019-02-28T10:27:28.335Z,6.23
2019-02-28T10:29:58.840Z,5.27
2019-02-28T10:32:29.383Z,27.87
2019-02-28T10:35:01.309Z,9.00
2019-02-28T10:37:31.765Z,10.53
2019-02-28T10:40:02.299Z,5.37
2019-02-28T10:42:32.933Z,5.87
2019-02-28T10:45:06.371Z,4.50
2019-02-28T10:47:35.613Z,5.77
2019-02-28T10:50:07.018Z,5.40
2019-02-28T10:52:37.467Z,5.73
2019-02-28T10:55:08.748Z,8.37
2019-02-28T10:57:40.629Z,5.37
2019-02-28T11:00:33.505Z,5.27
2019-02-28T11:03:04.385Z,4.90
2019-02-28T11:05:35.600Z,5.23
2019-02-28T11:08:09.608Z,5.47
2019-02-28T11:11:00.558Z,5.20
2019-02-28T11:13:31.991Z,7.63
2019-02-28T11:16:03.719Z,5.97
2019-02-28T11:18:36.408Z,8.07
2019-02-28T11:21:06.543Z,7.70
2019-02-28T11:23:36.988Z,8.27
2019-02-28T11:26:09.549Z,5.40
2019-02-28T11:28:39.683Z,5.70
2019-02-28T11:31:11.231Z,11.43
2019-02-28T11:33:41.946Z,5.03
2019-02-28T11:36:12.485Z,9.10
2019-02-28T11:38:42.893Z,21.83
2019-02-28T11:41:15.550Z,6.73
2019-02-28T11:43:45.404Z,8.33
2019-02-28T11:46:16.643Z,13.10
2019-02-28T11:48:47.043Z,8.10
2019-02-28T11:51:18.483Z,8.00
2019-02-28T11:53:49.015Z,9.60
2019-02-28T11:56:19.463Z,7.07
2019-02-28T11:58:51.559Z,9.00
2019-02-28T12:01:22.149Z,10.03
2019-02-28T12:03:52.920Z,9.03
2019-02-28T12:06:25.715Z,7.20
2019-02-28T12:08:55.487Z,9.20
2019-02-28T12:11:26.017Z,7.50
2019-02-28T12:13:56.465Z,5.33
2019-02-28T12:16:26.754Z,11.20
2019-02-28T12:18:57.100Z,10.63
2019-02-28T12:21:27.573Z,9.00
2019-02-28T12:23:58.669Z,9.30
2019-02-28T12:26:30.043Z,9.83
2019-02-28T12:29:00.432Z,10.03
2019-02-28T12:31:32.065Z,8.00
2019-02-28T12:34:03.011Z,6.73
2019-02-28T12:36:33.743Z,7.30
2019-02-28T12:42:03.882Z,27.03
2019-02-28T12:44:34.616Z,7.73
2019-02-28T12:47:06.503Z,7.03
2019-02-28T12:49:37.468Z,10.80
2019-02-28T12:52:08.196Z,9.00
2019-02-28T12:54:38.494Z,6.30
2019-02-28T12:57:08.928Z,7.07
2019-02-28T12:59:41.890Z,10.07
2019-02-28T13:05:14.778Z,8.17
2019-02-28T13:07:41.855Z,23.90
2019-02-28T13:10:33.473Z,7.33
2019-02-28T13:13:06.967Z,11.33
2019-02-28T13:15:36.259Z,6.10
2019-02-28T13:18:09.282Z,6.70
2019-02-28T13:20:40.012Z,15.40
2019-02-28T13:23:10.232Z,9.83
2019-02-28T13:25:40.630Z,14.77
2019-02-28T13:28:11.077Z,12.03
2019-02-28T13:30:49.049Z,7.57
2019-02-28T13:33:14.933Z,7.50
2019-02-28T13:35:47.652Z,6.00
2019-02-28T13:38:19.728Z,6.43
2019-02-28T13:40:51.009Z,8.20
2019-02-28T13:43:22.772Z,9.30
2019-02-28T13:45:55.757Z,9.27
2019-02-28T13:48:29.985Z,16.13
2019-02-28T13:50:59.383Z,5.53
2019-02-28T13:53:30.749Z,6.40
2019-02-28T13:56:04.803Z,11.57
2019-02-28T13:58:34.403Z,12.23
2019-02-28T14:01:04.679Z,13.00
2019-02-28T14:03:34.870Z,8.03
2019-02-28T14:06:05.330Z,24.83
2019-02-28T14:08:35.568Z,10.27
2019-02-28T14:11:10.271Z,7.13
2019-02-28T14:13:38.078Z,7.00
2019-02-28T14:16:08.479Z,13.93
2019-02-28T14:18:38.569Z,4.83
2019-02-28T14:21:08.684Z,15.33
2019-02-28T14:23:38.884Z,7.43
2019-02-28T14:26:11.374Z,18.83
2019-02-28T14:28:41.107Z,17.07
2019-02-28T14:31:11.165Z,8.07
2019-02-28T14:33:41.355Z,16.23
2019-02-28T14:36:11.677Z,18.90
2019-02-28T14:38:41.570Z,10.33
2019-02-28T14:41:11.508Z,6.33
2019-02-28T14:43:41.725Z,8.43
2019-02-28T14:46:11.934Z,11.80
2019-02-28T14:48:41.911Z,12.90
2019-02-28T14:51:12.121Z,14.10
2019-02-28T14:53:42.151Z,12.03
2019-02-28T14:56:12.361Z,20.50
2019-02-28T14:58:42.562Z,17.73
2019-02-28T15:01:16.764Z,8.77
2019-02-28T15:03:44.765Z,22.53
2019-02-28T15:06:14.761Z,17.17
2019-02-28T15:08:47.351Z,36.10
2019-02-28T15:11:17.178Z,13.83
2019-02-28T15:13:47.783Z,27.50
2019-02-28T15:16:18.298Z,11.73
2019-02-28T15:18:51.023Z,17.40
2019-02-28T15:21:20.993Z,39.90
2019-02-28T15:23:51.457Z,21.93
2019-02-28T15:26:22.006Z,27.63
2019-02-28T15:28:52.357Z,24.83
2019-02-28T15:31:22.769Z,20.40
2019-02-28T15:33:53.299Z,28.13
2019-02-28T15:36:24.158Z,17.40
2019-02-28T15:38:55.464Z,37.07
2019-02-28T15:41:25.964Z,22.90
2019-02-28T15:43:56.484Z,10.43
2019-02-28T15:46:26.697Z,25.87
2019-02-28T15:48:56.695Z,25.10
2019-02-28T15:51:29.285Z,41.53
2019-02-28T15:53:58.628Z,44.07
2019-02-28T15:56:28.813Z,31.20
2019-02-28T15:58:58.710Z,19.73
2019-02-28T16:01:32.149Z,40.50
2019-02-28T16:04:00.659Z,43.67
2019-02-28T16:06:30.955Z,49.00
2019-02-28T16:09:00.977Z,45.80
2019-02-28T16:11:31.292Z,34.57
2019-02-28T16:14:01.587Z,24.23
2019-02-28T16:16:31.785Z,26.23
2019-02-28T16:19:01.904Z,21.77
2019-02-28T16:21:31.917Z,18.37
2019-02-28T16:24:05.096Z,30.87
2019-02-28T16:26:34.052Z,67.03
2019-02-28T16:29:04.151Z,78.90
2019-02-28T16:31:34.231Z,72.07
2019-02-28T16:34:08.141Z,181.87
2019-02-28T16:36:36.403Z,136.00
2019-02-28T16:39:07.976Z,146.60
2019-02-28T16:41:37.991Z,137.93
2019-02-28T16:44:08.193Z,129.57
2019-02-28T16:46:38.383Z,82.50
2019-02-28T16:49:10.607Z,65.73
2019-02-28T16:51:40.206Z,130.33
2019-02-28T16:54:10.114Z,149.90
2019-02-28T16:56:40.135Z,482.47
2019-02-28T16:59:10.364Z,350.03
2019-02-28T17:01:40.597Z,115.13
2019-02-28T17:04:16.734Z,137.90
2019-02-28T17:06:42.508Z,82.90
2019-02-28T17:09:30.181Z,70.83
2019-02-28T17:12:12.973Z,60.57
2019-02-28T17:14:48.074Z,31.43
2019-02-28T17:17:28.928Z,29.07
2019-02-28T17:19:59.148Z,38.80
2019-02-28T17:22:29.357Z,76.17
2019-02-28T17:24:59.263Z,27.03
2019-02-28T17:27:46.778Z,34.60
2019-02-28T17:30:36.296Z,13.17
2019-02-28T17:33:05.812Z,33.17
2019-02-28T17:35:37.622Z,43.50
2019-02-28T17:38:08.003Z,55.40
2019-02-28T17:40:38.011Z,62.30
2019-02-28T17:43:08.103Z,80.03
2019-02-28T17:45:38.851Z,78.43
2019-02-28T17:48:26.028Z,197.40
2019-02-28T17:51:06.506Z,227.40
2019-02-28T17:54:08.045Z,177.90
2019-02-28T17:57:00.071Z,150.83
2019-02-28T17:59:54.253Z,73.63
2019-02-28T18:02:42.307Z,71.90
2019-02-28T18:05:36.523Z,89.27
2019-02-28T18:08:37.585Z,109.80
2019-02-28T18:11:49.311Z,172.77
2019-02-28T18:15:09.710Z,137.70
2019-02-28T18:18:17.975Z,135.67
2019-02-28T18:21:37.451Z,76.40
2019-02-28T18:24:44.707Z,85.50
2019-02-28T18:27:58.071Z,85.00
2019-02-28T18:31:09.152Z,59.30
2019-02-28T18:33:41.776Z,105.23
2019-02-28T18:36:15.788Z,125.20
2019-02-28T18:38:46.418Z,153.93
2019-02-28T18:41:38.873Z,196.63
2019-02-28T18:44:09.577Z,136.33
2019-02-28T18:46:39.466Z,140.33
2019-02-28T18:49:09.747Z,108.90
2019-02-28T18:51:44.994Z,97.17
2019-02-28T18:54:15.304Z,106.33
2019-02-28T18:56:45.671Z,95.30
2019-02-28T18:59:15.876Z,98.40
2019-02-28T19:01:45.955Z,109.57
2019-02-28T19:04:16.362Z,130.67
2019-02-28T19:06:46.692Z,132.40
2019-02-28T19:09:22.277Z,106.53
2019-02-28T19:11:52.552Z,85.77
2019-02-28T19:14:22.989Z,77.43
2019-02-28T19:16:53.317Z,87.93
2019-02-28T19:19:23.823Z,100.37
2019-02-28T19:21:54.083Z,92.33
2019-02-28T19:24:24.585Z,98.97
2019-02-28T19:26:55.124Z,85.17
2019-02-28T19:29:25.566Z,100.83
2019-02-28T19:31:56.275Z,99.67
2019-02-28T19:34:26.585Z,118.43
2019-02-28T19:36:57.019Z,119.80
2019-02-28T19:39:27.380Z,84.93
2019-02-28T19:41:57.667Z,66.50
2019-02-28T19:44:28.523Z,52.00
2019-02-28T19:46:59.024Z,49.53
2019-02-28T19:49:29.469Z,43.50
2019-02-28T19:52:00.105Z,54.50
2019-02-28T19:54:30.500Z,47.17
2019-02-28T19:57:00.848Z,48.37
2019-02-28T19:59:31.274Z,39.10
2019-02-28T20:02:01.858Z,44.03
2019-02-28T20:04:32.121Z,47.67
2019-02-28T20:07:02.738Z,49.37
2019-02-28T20:09:33.292Z,37.20
2019-02-28T20:15:01.889Z,22.90
2019-02-28T20:17:32.389Z,36.60
2019-02-28T20:20:03.045Z,52.17
2019-02-28T20:22:33.381Z,42.13
2019-02-28T20:25:03.797Z,65.17
2019-02-28T20:30:30.155Z,46.33
2019-02-28T20:33:00.653Z,29.77
2019-02-28T20:35:31.032Z,38.30
2019-02-28T20:38:01.537Z,64.70
2019-02-28T20:40:32.162Z,51.40
2019-02-28T20:43:02.611Z,54.93
2019-02-28T20:45:32.997Z,47.93
2019-02-28T20:48:04.349Z,52.50
2019-02-28T20:50:39.960Z,44.93
2019-02-28T20:53:10.096Z,56.57
2019-02-28T20:55:40.712Z,40.50
2019-02-28T20:58:11.378Z,48.23
2019-02-28T21:00:41.805Z,44.70
2019-02-28T21:03:12.232Z,57.00
2019-02-28T21:05:42.662Z,60.10
2019-02-28T21:08:13.156Z,48.47
2019-02-28T21:10:49.328Z,51.87
2019-02-28T21:13:19.825Z,52.23
2019-02-28T21:15:50.322Z,54.53
2019-02-28T21:18:20.743Z,58.97
2019-02-28T21:20:51.144Z,62.70
2019-02-28T21:23:21.615Z,56.77
2019-02-28T21:25:52.068Z,53.93
2019-02-28T21:28:22.618Z,52.83
2019-02-28T21:30:53.191Z,56.07
2019-02-28T21:33:24.020Z,50.33
2019-02-28T21:36:14.530Z,51.57
2019-02-28T21:38:45.250Z,51.97
2019-02-28T21:41:15.653Z,62.73
2019-02-28T21:43:46.301Z,58.50
2019-02-28T21:46:17.049Z,59.33
2019-02-28T21:48:47.671Z,64.83
2019-02-28T21:51:18.447Z,53.60
2019-02-28T21:53:49.046Z,74.33
2019-02-28T21:56:19.361Z,69.40
2019-02-28T21:58:49.691Z,71.20
2019-02-28T22:01:20.121Z,60.07
2019-02-28T22:03:50.402Z,84.60
2019-02-28T22:06:20.725Z,86.17
2019-02-28T22:08:51.140Z,83.90
2019-02-28T22:11:21.796Z,87.10
2019-02-28T22:13:52.353Z,109.77
2019-02-28T22:16:22.760Z,104.70
2019-02-28T22:18:53.156Z,104.97
2019-02-28T22:21:23.471Z,80.93
2019-02-28T22:23:53.968Z,77.17
2019-02-28T22:26:24.388Z,82.00
2019-02-28T22:28:54.668Z,72.40
2019-02-28T22:31:36.193Z,92.13
2019-02-28T22:34:14.390Z,72.30
2019-02-28T22:36:45.922Z,57.23
2019-02-28T22:39:16.557Z,58.37
2019-02-28T22:41:47.089Z,59.27
2019-02-28T22:44:17.482Z,83.47
2019-02-28T22:46:47.930Z,64.07
2019-02-28T22:49:18.365Z,59.73
2019-02-28T22:51:48.885Z,60.47
2019-02-28T22:54:19.468Z,86.80
2019-02-28T22:56:49.835Z,76.73
2019-02-28T22:59:20.261Z,59.50
2019-02-28T23:01:51.573Z,51.23
2019-02-28T23:04:21.980Z,67.33
2019-02-28T23:06:52.367Z,52.70
2019-02-28T23:09:22.773Z,60.87
2019-02-28T23:11:53.184Z,41.57
2019-02-28T23:14:23.652Z,48.77
2019-02-28T23:16:54.066Z,55.43
2019-02-28T23:19:24.902Z,37.80
2019-02-28T23:21:55.316Z,32.17
2019-02-28T23:24:25.700Z,36.80
2019-02-28T23:27:14.542Z,31.50
2019-02-28T23:30:11.480Z,37.60
2019-02-28T23:32:49.694Z,26.27
2019-02-28T23:35:23.543Z,20.67
2019-02-28T23:37:54.730Z,18.27
2019-02-28T23:40:25.137Z,19.83
2019-02-28T23:42:55.553Z,24.50
2019-02-28T23:45:26.214Z,23.43
2019-02-28T23:47:56.620Z,22.40
2019-02-28T23:50:27.162Z,12.30
2019-02-28T23:52:57.686Z,22.33
2019-02-28T23:55:28.151Z,27.03
2019-02-28T23:57:58.520Z,23.47
